ACH2055 EPPO-LEIB
Flight info
| Callsign | ACH2055 |
|---|---|
| Flight time | N/A |
| Altitude | 28000 |
| Route | ERNOX P861 RASAN DCT EVIKU DCT RUDAP DCT EBEDA DCT BADVI DCT BERAS DCT OLPIX DCT EKPEB DCT BOTAL DCT GEKBA DCT VAMTU DCT KOLON DCT GANGU DCT PADKO DCT VATIR DCT PIVUS DCT SULID DCT DIMIB DCT POS |
| Aircraft | B738/M-SDE2E3FGHIRWXY/LB1 |
Departure
| Time | 2026-05-05 16:08 |
|---|---|
| Airport | Poznań-Ławica Airport (EPPO) |
Arrival
| Time | N/A |
|---|---|
| Airport | Ibiza Airport (LEIB) |
| Time | Latitude | Longitude | Altitude | Speed | Heading |
|---|---|---|---|---|---|
| 2026-05-05 16:05 | 52.41594 | 16.83368 | 290 ft | 5 kts | 101° |
| 2026-05-05 16:05 | 52.41585 | 16.83429 | 287 ft | 8 kts | 104° |
| 2026-05-05 16:05 | 52.41569 | 16.83573 | 287 ft | 15 kts | 93° |
| 2026-05-05 16:06 | 52.41564 | 16.83739 | 287 ft | 14 kts | 93° |
| 2026-05-05 16:06 | 52.41576 | 16.83893 | 290 ft | 14 kts | 55° |
| 2026-05-05 16:06 | 52.41647 | 16.83989 | 291 ft | 13 kts | 23° |
| 2026-05-05 16:06 | 52.41730 | 16.84039 | 293 ft | 13 kts | 24° |
| 2026-05-05 16:07 | 52.41811 | 16.84060 | 290 ft | 12 kts | 331° |
| 2026-05-05 16:07 | 52.41865 | 16.83841 | 291 ft | 50 kts | 287° |
| 2026-05-05 16:07 | 52.42046 | 16.82905 | 285 ft | 117 kts | 288° |
| 2026-05-05 16:07 | 52.42347 | 16.81420 | 430 ft | 146 kts | 288° |
| 2026-05-05 16:08 | 52.42661 | 16.79770 | 809 ft | 156 kts | 287° |
| 2026-05-05 16:08 | 52.43008 | 16.77947 | 1095 ft | 184 kts | 287° |
| 2026-05-05 16:08 | 52.43402 | 16.75898 | 1622 ft | 192 kts | 287° |
| 2026-05-05 16:08 | 52.43815 | 16.73733 | 2047 ft | 208 kts | 287° |
| 2026-05-05 16:09 | 52.44271 | 16.71346 | 2220 ft | 232 kts | 287° |
| 2026-05-05 16:09 | 52.44770 | 16.68728 | 2605 ft | 246 kts | 287° |
| 2026-05-05 16:09 | 52.45288 | 16.66014 | 3248 ft | 251 kts | 287° |
| 2026-05-05 16:09 | 52.45801 | 16.63307 | 4111 ft | 251 kts | 287° |
| 2026-05-05 16:10 | 52.46321 | 16.60561 | 4983 ft | 253 kts | 287° |
| 2026-05-05 16:10 | 52.46847 | 16.57772 | 5792 ft | 257 kts | 287° |
| 2026-05-05 16:10 | 52.47368 | 16.54938 | 6618 ft | 260 kts | 283° |
| 2026-05-05 16:10 | 52.47369 | 16.52009 | 7418 ft | 264 kts | 255° |
| 2026-05-05 16:11 | 52.46509 | 16.49359 | 8278 ft | 267 kts | 227° |
| 2026-05-05 16:11 | 52.41368 | 16.45412 | 10439 ft | 295 kts | 213° |
| 2026-05-05 16:12 | 52.39645 | 16.43379 | 10650 ft | 321 kts | 217° |
| 2026-05-05 16:12 | 52.35805 | 16.38747 | 11509 ft | 355 kts | 216° |
| 2026-05-05 16:13 | 52.29630 | 16.31707 | 13945 ft | 366 kts | 214° |
| 2026-05-05 16:13 | 52.27507 | 16.29345 | 14739 ft | 371 kts | 214° |
| 2026-05-05 16:13 | 52.25384 | 16.26995 | 15535 ft | 375 kts | 214° |